ADDS METAR Data INFO
IDs: Format: Raw Decoded Include TAF

Data at: 1843 UTC 16 Dec 2017

KSMX 161751Z 35011KT 8SM CLR 16/04 A2984 RMK AO2 SLP105 T01610039 10161 20056 51004
KSMX 161651Z 32005KT 7SM CLR 13/06 A2983 RMK AO2 SLP104 T01280061
KSMX 161551Z 00000KT 7SM CLR 09/06 A2983 RMK AO2 SLP104 T00890056
KSMX 161459Z 31007KT 8SM FEW010 07/06 A2982 RMK AO2 T00670061
KSMX 161457Z 30006KT 8SM FEW003 07/06 A2982 RMK AO2 T00670061
KSMX 161451Z 30005KT 1/4SM R12/P6000FT FG VV003 07/06 A2982 RMK AO2 SLP103 T00670061 56005
KSMX 161436Z 00000KT 1/2SM R12/1400VP6000FT FG VV003 07/07 A2982 RMK AO2 T00720072
KSMX 161402Z 00000KT 1/4SM R12/P6000FT FG VV003 08/08 A2983 RMK AO2 T00780078
KSMX 161351Z COR 00000KT 1/4SM R12/P6000FT FG VV003 09/08 A2983 RMK AO2 SLP103 T00890083
KSMX 161340Z AUTO 08005KT 1/4SM R12/0500VP6000FT FG VV002 09/09 A2983 RMK AO2 T00890089
KSMX 161326Z AUTO 08003KT 1/4SM R12/0600V1000FT FG VV001 08/08 A2983 RMK AO2 T00830083
KSMX 161309Z AUTO 00000KT M1/4SM R12/0800V1600FT FG VV003 08/08 A2983 RMK AO2 T00780078
KSMX 161251Z AUTO 00000KT 1/4SM R12/1000V1800FT FG VV007 08/08 A2983 RMK AO2 SLP105 T00830078
KSMX 161223Z AUTO 00000KT 1/4SM R12/1000V1800FT FG VV009 07/07 A2984 RMK AO2 T00720072
KSMX 161214Z AUTO 26003KT 1/4SM R12/1200V3500FT FG VV010 08/08 A2984 RMK AO2 T00830078
KSMX 161207Z AUTO 26004KT 1 1/4SM R12/1400V3500FT BR BKN010 09/09 A2984 RMK AO2 T00890089
KSMX 161151Z AUTO 15004KT 1 1/2SM R12/0800V6000FT BR SCT010 09/09 A2984 RMK AO2 PRESFR SLP106 T00890089 10117 20089 56029
KSMX 161147Z AUTO 14003KT 3/4SM R12/0800VP6000FT BR VV010 09/09 A2984 RMK AO2 PRESFR
KSMX 161132Z AUTO 17003KT 1SM R12/1600V2800FT BR VV010 09/09 A2986 RMK AO2 PRESFR T00940094
KSMX 161120Z AUTO 00000KT 1/4SM R12/5500VP6000FT FG VV012 10/09 A2988 RMK AO2 T01000094
KSMX 161101Z AUTO 00000KT 1 1/4SM BR FEW006 OVC013 10/09 A2989 RMK AO2 T01000094
KSMX 161055Z AUTO 31004KT 2 1/2SM BR FEW006 OVC013 10/09 A2990 RMK AO2 T01000094
KSMX 161051Z AUTO 32003KT 3SM BR BKN008 OVC013 11/10 A2991 RMK AO2 SLP130 T01060100
KSMX 161015Z AUTO 00000KT 3SM BR OVC009 12/11 A2991 RMK AO2 T01170106
KSMX 160951Z AUTO 00000KT 3SM BR OVC011 12/11 A2992 RMK AO2 SLP134 T01170106
KSMX 160944Z AUTO 00000KT 2 1/2SM BR OVC013 11/11 A2993 RMK AO2 T01110106
KSMX 160927Z AUTO 29003KT 3SM BR BKN011 OVC016 11/11 A2994 RMK AO2 T01110106
KSMX 160920Z AUTO 29005KT 2 1/2SM BR BKN011 BKN016 11/11 A2995 RMK AO2 T01110106
KSMX 160913Z AUTO 29006KT 3SM BR BKN011 11/10 A2995 RMK AO2 T01110100
KSMX 160851Z AUTO 22004KT 3SM BR CLR 11/11 A2994 RMK AO2 SLP138 T01110106 58023
KSMX 160830Z AUTO 17003KT 3SM BR SCT012 11/11 A2995 RMK AO2 T01110106
KSMX 160818Z AUTO 10003KT 2 1/2SM BR BKN012 11/11 A2996 RMK AO2 T01110106
KSMX 160810Z AUTO 00000KT 3SM BR OVC013 12/11 A2998 RMK AO2 T01170111
KSMX 160758Z AUTO 07003KT 2 1/2SM BR SCT002 OVC014 12/12 A2998 RMK AO2 T01170117
KSMX 160751Z AUTO 06003KT 1 3/4SM BR BKN002 OVC014 12/12 A2998 RMK AO2 SLP154 T01170117 402330039
KSMX 160736Z AUTO 33005KT 1 1/4SM R12/3500VP6000FT BR BKN003 OVC010 12/11 A2999 RMK AO2 T01170106
KSMX 160733Z AUTO 31006KT 2 1/2SM R12/3500VP6000FT BR BKN003 OVC010 11/10 A2999 RMK AO2 T01110100
KSMX 160727Z AUTO 28005KT 4SM R12/4000VP6000FT BR SCT003 OVC010 11/09 A2998 RMK AO2 T01060094
KSMX 160718Z AUTO 27003KT 4SM BR OVC009 11/10 A2999 RMK AO2 CIG 008V014 T01110100
KSMX 160711Z AUTO 24004KT 2 1/2SM BR BKN009 11/11 A2999 RMK AO2 CIG 008V012 T01110106
KSMX 160701Z AUTO 00000KT 2 1/2SM BR BKN011 11/11 A2999 RMK AO2 T01110106
KSMX 160651Z AUTO 28003KT 4SM BR CLR 12/11 A2999 RMK AO2 SLP158 T01170111
KSMX 160623Z AUTO 14003KT 4SM BR SCT008 11/10 A2998 RMK AO2 T01110100
KSMX 160605Z AUTO 00000KT 4SM BR BKN008 10/09 A2999 RMK AO2 T01000094
KSMX 160551Z AUTO 29004KT 2 1/2SM BR BKN007 11/11 A3001 RMK AO2 SLP163 T01110106 10178 20111 56006
KSMX 160514Z AUTO 00000KT 3SM BR BKN007 13/12 A2999 RMK AO2 T01280117
KSMX 160451Z AUTO 10003KT 4SM BR SCT008 13/12 A3001 RMK AO2 PRESFR SLP163 T01280117
KSMX 160351Z 17003KT 5SM BR OVC007 12/11 A3002 RMK AO2 SLP170 T01220106
KSMX 160251Z 00000KT 5SM BR BKN005 12/10 A3004 RMK AO2 SLP176 T01220100 55003
KSMX 160221Z 29003KT 7SM SCT005 12/09 A3005 RMK AO2 T01220089
KSMX 160151Z 29004KT 7SM OVC200 13/09 A3003 RMK AO2 SLP174 T01330094
KSMX 160051Z 00000KT 7SM OVC200 15/09 A3004 RMK AO2 SLP174 T01500094
KSMX 152351Z 29004KT 7SM CLR 18/10 A3005 RMK AO2 SLP179 T01780100 10233 20178 58013
KSMX 152251Z 30005KT 8SM CLR 19/08 A3007 RMK AO2 SLP184 T01940083
KSMX 152151Z 30007KT 8SM CLR 21/02 A3008 RMK AO2 SLP187 T02060017
KSMX 152051Z 29009KT 7SM SCT200 22/04 A3009 RMK AO2 SLP191 T02170039 58026
KSMX 151951Z 29004KT 8SM CLR 23/M06 A3012 RMK AO2 SLP200 T02281056
KSMX 151851Z 00000KT 8SM CLR 22/M03 A3015 RMK AO2 SLP210 T02171028
KSMX 151751Z 00000KT 9SM CLR 20/M07 A3016 RMK AO2 SLP217 T02001067 10200 20039 51005
KSMX 151651Z 00000KT 8SM CLR 14/M06 A3016 RMK AO2 SLP217 T01441061
KSMX 151551Z 12003KT 9SM CLR 07/M06 A3016 RMK AO2 SLP217 T00721056
KSMX 151451Z 10003KT 10SM CLR 07/M07 A3015 RMK AO2 SLP213 T00671067 53007
KSMX 151351Z 10004KT 10SM CLR 06/M06 A3013 RMK AO2 SLP208 T00561056 $
KSMX 151251Z AUTO 00000KT 10SM CLR 07/M07 A3013 RMK AO2 SLP206 T00671067 $
KSMX 151151Z AUTO 00000KT 10SM CLR 05/M04 A3013 RMK AO2 SLP204 T00501044 10089 20050 55002 $
KSMX 151051Z AUTO 12003KT 10SM CLR 07/M06 A3013 RMK AO2 SLP204 T00721061 $
KSMX 150951Z AUTO 10003KT 10SM CLR 06/M04 A3013 RMK AO2 SLP205 T00561044 $
KSMX 150851Z AUTO 16003KT 10SM CLR 07/M06 A3013 RMK AO2 SLP206 T00721061 50002 $
KSMX 150751Z AUTO 12003KT 9SM CLR 07/M04 A3014 RMK AO2 SLP208 T00671039 402390028 $
KSMX 150651Z AUTO 13004KT 9SM CLR 08/M04 A3013 RMK AO2 SLP206 T00781044 $